createdAt,value
2023-01-30T00:01:17.120Z,-0.01
2023-01-30T00:03:44.857Z,-0.06
2023-01-30T00:06:14.398Z,-0.03
2023-01-30T00:08:42.219Z,0.12
2023-01-30T00:11:13.873Z,0.16
2023-01-30T00:13:42.657Z,0.12
2023-01-30T00:16:11.305Z,0.08
2023-01-30T00:18:40.267Z,0.13
2023-01-30T00:21:10.276Z,0.14
2023-01-30T00:23:40.155Z,0.14
2023-01-30T00:26:09.740Z,0.16
2023-01-30T00:28:40.140Z,0.13
2023-01-30T00:31:11.859Z,0.14
2023-01-30T00:33:39.923Z,0.16
2023-01-30T00:36:08.812Z,0.16
2023-01-30T00:38:37.039Z,0.09
2023-01-30T00:41:06.601Z,0.07
2023-01-30T00:43:52.099Z,-0.04
2023-01-30T00:46:45.649Z,-0.02
2023-01-30T00:49:13.578Z,-0.01
2023-01-30T00:51:41.253Z,-0.06
2023-01-30T00:54:09.129Z,-0.07
2023-01-30T00:56:38.222Z,-0.03
2023-01-30T00:59:05.857Z,-0.01
2023-01-30T01:01:33.686Z,0.02
2023-01-30T01:04:01.377Z,-0.02
2023-01-30T01:06:28.909Z,-0.02
2023-01-30T01:08:56.630Z,0.02
2023-01-30T01:11:27.650Z,0.04
2023-01-30T01:13:57.475Z,0.01
2023-01-30T01:16:26.604Z,-0.03
2023-01-30T01:18:54.920Z,-0.07
2023-01-30T01:21:23.811Z,0.03
2023-01-30T01:23:52.532Z,0.05
2023-01-30T01:26:26.038Z,0.11
2023-01-30T01:28:57.191Z,0.08
2023-01-30T01:31:25.715Z,0.08
2023-01-30T01:33:53.933Z,0.03
2023-01-30T01:36:51.438Z,-0.03
2023-01-30T01:39:09.862Z,0.09
2023-01-30T01:41:36.637Z,0.02
2023-01-30T01:44:08.385Z,-0.03
2023-01-30T01:46:38.018Z,0.04
2023-01-30T01:49:09.381Z,0.07
2023-01-30T01:54:27.416Z,0.16
2023-01-30T01:56:55.579Z,0.14
2023-01-30T01:59:28.719Z,0.18
2023-01-30T02:01:58.539Z,0.11
2023-01-30T02:04:45.035Z,0.25
2023-01-30T02:07:12.724Z,0.19
2023-01-30T02:09:40.385Z,0.10
2023-01-30T02:12:08.374Z,0.14
2023-01-30T02:14:38.487Z,0.12
2023-01-30T02:17:06.724Z,0.06
2023-01-30T02:19:38.287Z,0.20
2023-01-30T02:22:41.447Z,0.17
2023-01-30T02:25:36.852Z,0.14
2023-01-30T02:28:39.783Z,0.15
2023-01-30T02:31:25.696Z,0.05
2023-01-30T02:34:02.072Z,0.11
2023-01-30T02:36:37.350Z,0.16
2023-01-30T02:39:27.906Z,0.13
2023-01-30T02:42:01.937Z,-0.02
2023-01-30T02:44:34.685Z,0.07
2023-01-30T02:47:07.960Z,0.22
2023-01-30T02:49:37.815Z,0.21
2023-01-30T02:52:07.882Z,0.31
2023-01-30T02:54:35.466Z,0.21
2023-01-30T02:57:03.111Z,0.18
2023-01-30T02:59:33.611Z,0.25
2023-01-30T03:02:18.510Z,0.24
2023-01-30T03:04:54.555Z,0.26
2023-01-30T03:07:28.703Z,0.36
2023-01-30T03:10:02.762Z,0.42
2023-01-30T03:12:39.421Z,0.43
2023-01-30T03:15:11.285Z,0.28
2023-01-30T03:17:43.284Z,0.31
2023-01-30T03:20:12.288Z,0.34
2023-01-30T03:22:39.893Z,0.29
2023-01-30T03:25:08.565Z,0.30
2023-01-30T03:27:36.947Z,0.26
2023-01-30T03:30:05.121Z,0.39
2023-01-30T03:32:32.665Z,0.35
2023-01-30T03:35:01.608Z,0.47
2023-01-30T03:37:29.286Z,0.53
2023-01-30T03:39:56.902Z,0.48
2023-01-30T03:42:24.491Z,0.48
2023-01-30T03:44:52.054Z,0.51
2023-01-30T03:47:19.724Z,0.51
2023-01-30T03:49:47.278Z,0.48
2023-01-30T03:52:16.154Z,0.52
2023-01-30T03:54:43.831Z,0.44
2023-01-30T03:57:11.445Z,0.37
2023-01-30T03:59:39.001Z,0.41
2023-01-30T04:02:06.768Z,0.47
2023-01-30T04:04:34.387Z,0.54
2023-01-30T04:07:01.963Z,0.54
2023-01-30T04:09:30.947Z,0.46
2023-01-30T04:11:58.547Z,0.55
2023-01-30T04:14:26.149Z,0.40
2023-01-30T04:16:54.062Z,0.49
2023-01-30T04:19:21.681Z,0.48
2023-01-30T04:21:49.293Z,0.47
2023-01-30T04:24:16.912Z,0.47
2023-01-30T04:26:45.941Z,0.50
2023-01-30T04:29:13.623Z,0.46
2023-01-30T04:31:41.322Z,0.51
2023-01-30T04:34:08.940Z,0.48
2023-01-30T04:36:36.940Z,0.42
2023-01-30T04:39:04.721Z,0.44
2023-01-30T04:41:32.314Z,0.47
2023-01-30T04:44:01.250Z,0.58
2023-01-30T04:46:28.876Z,0.58
2023-01-30T04:48:56.525Z,0.60
2023-01-30T04:51:24.090Z,0.66
2023-01-30T04:53:51.685Z,0.56
2023-01-30T04:56:19.292Z,0.59
2023-01-30T04:58:46.880Z,0.55
2023-01-30T05:01:18.119Z,0.63
2023-01-30T05:03:45.702Z,0.59
2023-01-30T05:06:13.315Z,0.53
2023-01-30T05:08:40.898Z,0.59
2023-01-30T05:11:08.427Z,0.70
2023-01-30T05:13:36.164Z,0.66
2023-01-30T05:16:03.864Z,0.63
2023-01-30T05:18:33.982Z,0.67
2023-01-30T05:21:06.519Z,0.60
2023-01-30T05:23:34.221Z,0.57
2023-01-30T05:26:02.126Z,0.73
2023-01-30T05:28:29.952Z,0.67
2023-01-30T05:31:02.317Z,0.71
2023-01-30T05:33:30.143Z,0.72
2023-01-30T05:35:59.589Z,0.81
2023-01-30T05:38:27.875Z,0.75
2023-01-30T05:41:01.949Z,0.70
2023-01-30T05:43:30.002Z,0.71
2023-01-30T05:45:59.374Z,0.58
2023-01-30T05:48:27.132Z,0.61
2023-01-30T05:50:55.776Z,0.60
2023-01-30T05:53:26.460Z,0.47
2023-01-30T05:55:56.487Z,0.46
2023-01-30T05:58:24.291Z,0.57
2023-01-30T06:00:51.873Z,0.58
2023-01-30T06:03:21.364Z,0.60
2023-01-30T06:05:48.878Z,0.63
2023-01-30T06:08:16.675Z,0.59
2023-01-30T06:10:45.763Z,0.66
2023-01-30T06:13:13.292Z,0.68
2023-01-30T06:15:41.066Z,0.76
2023-01-30T06:18:08.746Z,0.83
2023-01-30T06:20:36.439Z,0.84
2023-01-30T06:23:04.102Z,0.82
2023-01-30T06:25:31.720Z,0.91
2023-01-30T06:28:00.619Z,0.91
2023-01-30T06:30:28.320Z,0.89
2023-01-30T06:32:55.912Z,0.85
2023-01-30T06:35:23.588Z,0.91
2023-01-30T06:37:51.165Z,0.95
2023-01-30T06:40:19.174Z,0.92
2023-01-30T06:42:47.104Z,0.93
2023-01-30T06:45:17.881Z,0.91
2023-01-30T06:47:46.815Z,0.92
2023-01-30T06:50:14.836Z,0.81
2023-01-30T06:52:43.206Z,0.85
2023-01-30T06:55:11.661Z,0.88
2023-01-30T06:57:39.257Z,0.91
2023-01-30T07:00:08.798Z,0.92
2023-01-30T07:02:38.039Z,1.01
2023-01-30T07:05:07.417Z,0.98
2023-01-30T07:07:35.051Z,0.95
2023-01-30T07:10:08.283Z,1.03
2023-01-30T07:12:37.087Z,0.92
2023-01-30T07:15:06.509Z,0.95
2023-01-30T07:17:34.219Z,1.03
2023-01-30T07:20:03.591Z,1.06
2023-01-30T07:22:31.136Z,0.93
2023-01-30T07:24:58.713Z,0.96
2023-01-30T07:27:26.459Z,1.00
2023-01-30T07:29:54.108Z,1.07
2023-01-30T07:32:21.681Z,0.95
2023-01-30T07:34:49.352Z,1.01
2023-01-30T07:37:18.255Z,1.02
2023-01-30T07:39:45.884Z,1.04
2023-01-30T07:42:13.464Z,1.03
2023-01-30T07:44:41.019Z,0.97
2023-01-30T07:47:08.777Z,1.05
2023-01-30T07:49:36.512Z,1.05
2023-01-30T07:52:04.099Z,1.17
2023-01-30T07:54:33.167Z,1.23
2023-01-30T07:57:01.069Z,1.35
2023-01-30T07:59:28.720Z,1.30
2023-01-30T08:01:56.897Z,1.35
2023-01-30T08:04:24.705Z,1.31
2023-01-30T08:06:52.409Z,1.33
2023-01-30T08:09:20.198Z,1.34
2023-01-30T08:11:49.212Z,1.29
2023-01-30T08:14:17.026Z,1.27
2023-01-30T08:16:44.705Z,1.33
2023-01-30T08:19:12.346Z,1.34
2023-01-30T08:21:39.951Z,1.40
2023-01-30T08:24:08.671Z,1.40
2023-01-30T08:26:36.378Z,1.45
2023-01-30T08:29:05.609Z,1.44
2023-01-30T08:31:33.501Z,1.43
2023-01-30T08:34:01.107Z,1.51
2023-01-30T08:36:28.688Z,1.52
2023-01-30T08:38:56.309Z,1.50
2023-01-30T08:41:23.942Z,1.58
2023-01-30T08:43:51.528Z,1.56
2023-01-30T08:46:21.936Z,1.56
2023-01-30T08:48:50.517Z,1.51
2023-01-30T08:51:18.327Z,1.56
2023-01-30T08:53:45.971Z,1.74
2023-01-30T08:56:13.579Z,1.76
2023-01-30T08:58:43.693Z,1.82
2023-01-30T09:01:11.423Z,1.83
2023-01-30T09:03:40.370Z,1.86
2023-01-30T09:06:08.242Z,1.84
2023-01-30T09:08:36.058Z,1.96
2023-01-30T09:11:05.702Z,1.92
2023-01-30T09:13:33.853Z,2.00
2023-01-30T09:16:01.502Z,1.99
2023-01-30T09:18:29.221Z,2.14
2023-01-30T09:21:04.894Z,2.14
2023-01-30T09:23:32.810Z,2.11
2023-01-30T09:26:02.201Z,2.29
2023-01-30T09:28:30.132Z,2.34
2023-01-30T09:30:58.403Z,2.39
2023-01-30T09:33:26.235Z,2.39
2023-01-30T09:35:53.987Z,2.52
2023-01-30T09:38:22.985Z,2.53
2023-01-30T09:40:57.855Z,2.61
2023-01-30T09:43:46.310Z,2.65
2023-01-30T09:46:20.216Z,2.65
2023-01-30T09:48:55.908Z,2.76
2023-01-30T09:51:33.863Z,2.98
2023-01-30T09:54:24.237Z,3.05
2023-01-30T09:57:20.555Z,3.02
2023-01-30T09:59:58.108Z,3.03
2023-01-30T10:02:32.675Z,3.09
2023-01-30T10:05:02.697Z,3.10
2023-01-30T10:07:37.151Z,3.20
2023-01-30T10:10:12.219Z,3.20
2023-01-30T10:12:46.995Z,3.30
2023-01-30T10:15:26.303Z,3.36
2023-01-30T10:18:15.039Z,3.47
2023-01-30T10:20:50.738Z,3.54
2023-01-30T10:23:35.646Z,3.54
2023-01-30T10:26:09.537Z,3.69
2023-01-30T10:28:40.229Z,3.71
2023-01-30T10:31:11.838Z,3.85
2023-01-30T10:33:44.996Z,3.72
2023-01-30T10:36:14.822Z,3.83
2023-01-30T10:38:47.029Z,3.92
2023-01-30T10:41:23.983Z,4.11
2023-01-30T10:43:59.708Z,4.10
2023-01-30T10:46:46.682Z,4.25
2023-01-30T10:49:19.339Z,4.34
2023-01-30T10:51:53.850Z,4.49
2023-01-30T10:54:25.515Z,4.70
2023-01-30T10:56:58.993Z,4.77
2023-01-30T10:59:36.925Z,4.53
2023-01-30T11:02:15.909Z,4.71
2023-01-30T11:04:47.964Z,5.06
2023-01-30T11:07:16.032Z,5.03
2023-01-30T11:09:45.858Z,4.90
2023-01-30T11:12:15.658Z,4.87
2023-01-30T11:14:54.344Z,4.89
2023-01-30T11:17:23.538Z,4.70
2023-01-30T11:19:56.526Z,4.71
2023-01-30T11:22:26.485Z,4.66
2023-01-30T11:25:02.705Z,4.59
2023-01-30T11:27:33.785Z,4.50
2023-01-30T11:30:07.841Z,4.56
2023-01-30T11:35:24.942Z,4.50
2023-01-30T11:37:54.043Z,4.63
2023-01-30T11:40:27.937Z,4.52
2023-01-30T11:43:04.621Z,4.66
2023-01-30T11:45:37.169Z,4.53
2023-01-30T11:48:07.882Z,4.57
2023-01-30T11:50:47.251Z,4.60
2023-01-30T11:53:25.115Z,4.62
2023-01-30T11:56:03.097Z,4.82
2023-01-30T11:58:36.174Z,4.82
2023-01-30T12:01:05.261Z,4.83
2023-01-30T12:03:34.470Z,4.73
2023-01-30T12:06:02.202Z,4.80
2023-01-30T12:08:44.328Z,4.84
2023-01-30T12:11:33.328Z,5.21
2023-01-30T12:14:18.732Z,5.26
2023-01-30T12:16:53.837Z,5.27
2023-01-30T12:19:29.837Z,5.45
2023-01-30T12:22:01.125Z,5.53
2023-01-30T12:24:32.866Z,5.59
2023-01-30T12:27:04.291Z,5.87
2023-01-30T12:29:37.130Z,5.93
2023-01-30T12:34:34.476Z,5.70
2023-01-30T12:37:09.787Z,5.71
2023-01-30T12:39:49.859Z,5.67
2023-01-30T12:42:30.134Z,5.67
2023-01-30T12:45:06.191Z,5.71
2023-01-30T12:47:46.062Z,5.60
2023-01-30T12:50:24.568Z,5.44
2023-01-30T12:53:03.484Z,5.51
2023-01-30T12:55:38.472Z,5.40
2023-01-30T12:58:12.965Z,5.46
2023-01-30T13:01:03.322Z,5.45
2023-01-30T13:03:36.929Z,5.35
2023-01-30T13:06:12.127Z,5.50
2023-01-30T13:08:53.696Z,5.55
2023-01-30T13:11:38.230Z,5.65
2023-01-30T13:14:13.859Z,5.62
2023-01-30T13:16:52.523Z,5.44
2023-01-30T13:19:31.095Z,5.50
2023-01-30T13:22:11.403Z,5.46
2023-01-30T13:24:48.719Z,5.43
2023-01-30T13:27:18.516Z,5.50
2023-01-30T13:29:47.852Z,5.40
2023-01-30T13:32:21.730Z,5.34
2023-01-30T13:34:49.732Z,5.43
2023-01-30T13:37:18.516Z,5.28
2023-01-30T13:39:49.942Z,5.38
2023-01-30T13:42:27.045Z,5.41
2023-01-30T13:44:55.115Z,5.45
2023-01-30T13:47:33.217Z,5.49
2023-01-30T13:50:16.518Z,5.57
2023-01-30T13:52:47.773Z,5.64
2023-01-30T13:55:26.671Z,5.67
2023-01-30T13:57:58.106Z,5.66
2023-01-30T14:00:31.164Z,5.48
2023-01-30T14:03:24.908Z,5.58
2023-01-30T14:06:03.964Z,5.52
2023-01-30T14:08:36.739Z,5.55
2023-01-30T14:11:04.662Z,5.53
2023-01-30T14:13:33.098Z,5.57
2023-01-30T14:16:02.545Z,5.65
2023-01-30T14:18:33.881Z,5.52
2023-01-30T14:21:14.820Z,5.63
2023-01-30T14:23:43.220Z,5.70
2023-01-30T14:26:11.563Z,5.66
2023-01-30T14:28:49.356Z,5.81
2023-01-30T14:31:53.990Z,5.82
2023-01-30T14:34:51.038Z,5.79
2023-01-30T14:37:52.874Z,5.80
2023-01-30T14:40:35.648Z,5.83
2023-01-30T14:43:48.186Z,5.78
2023-01-30T14:46:54.973Z,5.76
2023-01-30T14:49:27.741Z,5.73
2023-01-30T14:51:57.213Z,5.77
2023-01-30T14:54:40.952Z,5.78
2023-01-30T14:57:19.628Z,5.79
2023-01-30T15:00:13.098Z,5.72
2023-01-30T15:02:44.080Z,5.69
2023-01-30T15:05:14.913Z,5.64
2023-01-30T15:07:45.854Z,5.60
2023-01-30T15:10:21.303Z,5.61
2023-01-30T15:13:11.678Z,5.45
2023-01-30T15:15:42.305Z,5.49
2023-01-30T15:18:21.019Z,5.46
2023-01-30T15:21:02.370Z,5.45
2023-01-30T15:23:54.001Z,5.31
2023-01-30T15:26:34.075Z,5.29
2023-01-30T15:29:20.846Z,5.28
2023-01-30T15:31:55.649Z,5.22
2023-01-30T15:34:24.153Z,5.25
2023-01-30T15:36:51.749Z,5.21
2023-01-30T15:39:22.166Z,5.34
2023-01-30T15:41:52.504Z,5.19
2023-01-30T15:44:40.945Z,5.27
2023-01-30T15:47:27.025Z,5.28
2023-01-30T15:49:57.247Z,5.23
2023-01-30T15:52:32.397Z,5.17
2023-01-30T15:55:02.154Z,5.08
2023-01-30T15:57:32.643Z,5.09
2023-01-30T16:00:00.574Z,5.01
2023-01-30T16:02:31.715Z,4.97
2023-01-30T16:05:16.326Z,4.95
2023-01-30T16:07:45.011Z,4.90
2023-01-30T16:10:19.484Z,4.90
2023-01-30T16:12:47.843Z,4.75
2023-01-30T16:15:21.031Z,4.68
2023-01-30T16:17:58.385Z,4.79
2023-01-30T16:20:26.054Z,4.62
2023-01-30T16:25:34.334Z,4.69
2023-01-30T16:28:01.959Z,4.74
2023-01-30T16:30:30.527Z,4.64
2023-01-30T16:32:58.411Z,4.60
2023-01-30T16:35:30.904Z,4.62
2023-01-30T16:38:00.001Z,4.51
2023-01-30T16:40:30.879Z,4.52
2023-01-30T16:43:00.352Z,4.49
2023-01-30T16:46:01.884Z,4.56
2023-01-30T16:48:33.031Z,4.50
2023-01-30T16:51:22.828Z,4.45
2023-01-30T16:53:56.747Z,4.42
2023-01-30T16:56:26.315Z,4.51
2023-01-30T16:58:56.755Z,4.48
2023-01-30T17:01:35.721Z,4.47
2023-01-30T17:04:05.289Z,4.46
2023-01-30T17:06:38.034Z,4.40
2023-01-30T17:09:09.264Z,4.37
2023-01-30T17:11:38.730Z,4.36
2023-01-30T17:14:30.464Z,4.35
2023-01-30T17:17:02.348Z,4.43
2023-01-30T17:19:30.154Z,4.35
2023-01-30T17:21:59.130Z,4.39
2023-01-30T17:24:27.278Z,4.42
2023-01-30T17:26:59.424Z,4.46
2023-01-30T17:29:42.058Z,4.51
2023-01-30T17:32:11.910Z,4.59
2023-01-30T17:34:41.174Z,4.59
2023-01-30T17:37:11.326Z,4.53
2023-01-30T17:39:38.921Z,4.65
2023-01-30T17:42:10.359Z,4.56
2023-01-30T17:44:38.051Z,4.60
2023-01-30T17:47:06.331Z,4.67
2023-01-30T17:49:33.952Z,4.47
2023-01-30T17:52:01.624Z,4.62
2023-01-30T17:54:30.148Z,4.58
2023-01-30T17:57:01.387Z,4.61
2023-01-30T17:59:31.069Z,4.53
2023-01-30T18:01:59.145Z,4.61
2023-01-30T18:04:26.832Z,4.70
2023-01-30T18:06:57.019Z,4.64
2023-01-30T18:09:26.831Z,4.57
2023-01-30T18:11:54.504Z,4.72
2023-01-30T18:14:22.946Z,4.65
2023-01-30T18:16:52.746Z,4.69
2023-01-30T18:19:23.881Z,4.76
2023-01-30T18:21:51.473Z,4.73
2023-01-30T18:24:19.341Z,4.72
2023-01-30T18:26:47.881Z,4.66
2023-01-30T18:29:15.526Z,4.53
2023-01-30T18:31:43.707Z,4.29
2023-01-30T18:34:13.013Z,4.63
2023-01-30T18:36:40.689Z,4.68
2023-01-30T18:39:08.442Z,4.64
2023-01-30T18:41:36.191Z,4.65
2023-01-30T18:44:06.973Z,4.66
2023-01-30T18:46:35.031Z,4.68
2023-01-30T18:49:02.876Z,4.57
2023-01-30T18:51:34.267Z,4.61
2023-01-30T18:54:02.535Z,4.72
2023-01-30T18:56:31.777Z,4.64
2023-01-30T18:59:02.472Z,4.55
2023-01-30T19:01:32.296Z,4.48
2023-01-30T19:04:01.745Z,4.52
2023-01-30T19:06:31.420Z,4.50
2023-01-30T19:08:59.735Z,4.51
2023-01-30T19:11:45.124Z,4.53
2023-01-30T19:14:14.240Z,4.58
2023-01-30T19:16:42.270Z,4.51
2023-01-30T19:19:10.258Z,4.55
2023-01-30T19:21:39.321Z,4.60
2023-01-30T19:24:08.919Z,4.52
2023-01-30T19:26:36.581Z,4.53
2023-01-30T19:29:04.752Z,4.55
2023-01-30T19:31:32.478Z,4.58
2023-01-30T19:34:02.801Z,4.58
2023-01-30T19:36:32.685Z,4.56
2023-01-30T19:39:03.594Z,4.65
2023-01-30T19:41:33.155Z,4.58
2023-01-30T19:44:02.311Z,4.74
2023-01-30T19:46:30.232Z,4.65
2023-01-30T19:48:58.435Z,4.63
2023-01-30T19:51:27.385Z,4.62
2023-01-30T19:53:56.592Z,4.60
2023-01-30T19:56:27.199Z,4.51
2023-01-30T19:58:57.149Z,4.61
2023-01-30T20:01:27.452Z,4.60
2023-01-30T20:03:55.312Z,4.54
2023-01-30T20:06:24.574Z,4.63
2023-01-30T20:08:55.238Z,4.54
2023-01-30T20:11:23.138Z,4.59
2023-01-30T20:13:53.280Z,4.66
2023-01-30T20:16:22.479Z,4.66
2023-01-30T20:18:55.652Z,4.63
2023-01-30T20:21:23.790Z,4.60
2023-01-30T20:23:51.957Z,4.65
2023-01-30T20:26:21.398Z,4.70
2023-01-30T20:28:49.305Z,4.58
2023-01-30T20:31:20.073Z,4.60
2023-01-30T20:33:47.801Z,4.54
2023-01-30T20:36:18.609Z,4.49
2023-01-30T20:38:47.430Z,4.61
2023-01-30T20:41:17.149Z,4.45
2023-01-30T20:43:49.029Z,4.67
2023-01-30T20:46:19.387Z,4.59
2023-01-30T20:48:47.485Z,4.54
2023-01-30T20:51:16.762Z,4.64
2023-01-30T20:53:48.489Z,4.53
2023-01-30T20:56:16.167Z,4.42
2023-01-30T20:58:43.878Z,4.60
2023-01-30T21:01:13.421Z,4.47
2023-01-30T21:03:43.582Z,4.51
2023-01-30T21:06:11.351Z,4.28
2023-01-30T21:08:39.483Z,4.42
2023-01-30T21:11:09.476Z,4.39
2023-01-30T21:13:38.293Z,4.37
2023-01-30T21:16:07.818Z,4.33
2023-01-30T21:18:38.381Z,4.37
2023-01-30T21:21:08.389Z,4.38
2023-01-30T21:23:36.082Z,4.43
2023-01-30T21:26:05.690Z,4.27
2023-01-30T21:28:33.521Z,4.21
2023-01-30T21:31:06.021Z,4.23
2023-01-30T21:33:33.679Z,4.11
2023-01-30T21:36:01.941Z,3.97
2023-01-30T21:38:48.691Z,3.97
2023-01-30T21:41:35.623Z,4.04
2023-01-30T21:44:03.261Z,4.06
2023-01-30T21:46:33.981Z,4.20
2023-01-30T21:49:03.313Z,4.22
2023-01-30T21:51:32.026Z,4.19
2023-01-30T21:54:02.426Z,4.17
2023-01-30T21:56:30.801Z,4.26
2023-01-30T21:58:59.899Z,4.35
2023-01-30T22:01:28.886Z,4.19
2023-01-30T22:03:57.928Z,4.24
2023-01-30T22:06:25.547Z,4.21
2023-01-30T22:08:55.482Z,4.09
2023-01-30T22:11:24.808Z,4.13
2023-01-30T22:13:52.670Z,4.18
2023-01-30T22:16:21.905Z,4.15
2023-01-30T22:18:53.862Z,4.10
2023-01-30T22:21:23.367Z,4.04
2023-01-30T22:23:52.355Z,4.05
2023-01-30T22:26:21.405Z,4.07
2023-01-30T22:28:54.504Z,3.90
2023-01-30T22:31:22.905Z,3.95
2023-01-30T22:33:53.600Z,3.83
2023-01-30T22:36:21.857Z,3.87
2023-01-30T22:38:50.654Z,3.82
2023-01-30T22:41:20.482Z,3.81
2023-01-30T22:43:50.910Z,3.70
2023-01-30T22:46:19.554Z,3.65
2023-01-30T22:48:47.543Z,3.58
2023-01-30T22:51:16.684Z,3.59
2023-01-30T22:53:45.548Z,3.55
2023-01-30T22:56:14.736Z,3.58
2023-01-30T22:58:42.823Z,3.51
2023-01-30T23:01:14.975Z,3.56
2023-01-30T23:03:43.583Z,3.53
2023-01-30T23:06:12.700Z,3.36
2023-01-30T23:08:41.918Z,3.47
2023-01-30T23:11:11.720Z,3.45
2023-01-30T23:13:40.387Z,3.31
2023-01-30T23:16:08.099Z,3.31
2023-01-30T23:18:55.068Z,3.34
2023-01-30T23:21:23.403Z,3.38
2023-01-30T23:23:52.597Z,3.36
2023-01-30T23:26:20.940Z,3.39
2023-01-30T23:28:48.727Z,3.41
2023-01-30T23:31:18.865Z,3.34
2023-01-30T23:33:48.071Z,3.33
2023-01-30T23:36:16.282Z,3.29
2023-01-30T23:38:43.860Z,3.33
2023-01-30T23:41:14.459Z,3.35
2023-01-30T23:43:43.607Z,3.16
2023-01-30T23:46:17.158Z,3.23
2023-01-30T23:48:46.041Z,3.18
2023-01-30T23:51:15.908Z,3.11
2023-01-30T23:53:43.661Z,3.10
2023-01-30T23:56:11.666Z,3.06
2023-01-30T23:58:39.974Z,3.08
